Wetterdaten: Woche 07.12.20 - 13.12.20 (KW50)
Datum Zeit Temp. A. Feuchte A. Luftdruck Regen Wind Richtung Taupunkt Windchill Windben
07.12.2020 00:00 7,4 C 83 % 1001,9 hPa 0,0 l/m 0,2 km/h N 4,6 C 7,4 C 4,4 km/h
07.12.2020 01:00 7,3 C 83 % 1001,5 hPa 0,0 l/m 0,7 km/h N 4,5 C 7,3 C 6,4 km/h
07.12.2020 02:00 7,0 C 83 % 1001,5 hPa 0,0 l/m 0,7 km/h N 4,3 C 7,0 C 5,6 km/h
07.12.2020 03:00 6,7 C 82 % 1001,4 hPa 0,0 l/m 0,9 km/h N 3,9 C 6,7 C 6,8 km/h
07.12.2020 04:00 6,6 C 83 % 1001,8 hPa 0,0 l/m 1,4 km/h N 3,8 C 6,6 C 7,2 km/h
07.12.2020 05:00 6,4 C 82 % 1001,9 hPa 0,0 l/m 2,0 km/h N 3,6 C 6,4 C 8,0 km/h
07.12.2020 06:00 6,3 C 82 % 1002,2 hPa 0,0 l/m 0,6 km/h N 3,5 C 6,3 C 6,4 km/h
07.12.2020 07:00 6,2 C 82 % 1003,0 hPa 0,3 l/m 0,1 km/h N 3,3 C 6,2 C 2,4 km/h
07.12.2020 08:00 6,1 C 82 % 1003,2 hPa 0,0 l/m 0,9 km/h N 3,3 C 6,1 C 5,6 km/h
07.12.2020 09:00 6,2 C 82 % 1003,8 hPa 0,0 l/m 0,9 km/h N 3,4 C 6,2 C 7,3 km/h
07.12.2020 10:00 6,3 C 82 % 1004,3 hPa 0,0 l/m 0,2 km/h N 3,5 C 6,3 C 5,2 km/h
07.12.2020 11:00 6,4 C 82 % 1004,4 hPa 0,0 l/m 0,1 km/h N 3,6 C 6,4 C 4,4 km/h
07.12.2020 12:00 6,6 C 82 % 1004,4 hPa 0,0 l/m 0,3 km/h N 3,8 C 6,6 C 6,0 km/h
07.12.2020 13:00 7,0 C 82 % 1004,4 hPa 0,0 l/m 0,1 km/h N 4,2 C 7,0 C 2,8 km/h
07.12.2020 14:00 7,1 C 82 % 1004,5 hPa 0,0 l/m 0,1 km/h N 4,3 C 7,1 C 4,0 km/h
07.12.2020 15:00 7,2 C 82 % 1005,1 hPa 0,0 l/m 0,0 km/h N 4,3 C 7,2 C 3,6 km/h
07.12.2020 16:00 6,9 C 83 % 1005,5 hPa 0,0 l/m 0,2 km/h N 4,1 C 6,9 C 3,6 km/h
07.12.2020 17:00 6,3 C 83 % 1005,9 hPa 0,0 l/m 0,0 km/h N 3,6 C 6,3 C 0,0 km/h
07.12.2020 18:00 5,7 C 83 % 1006,2 hPa 0,0 l/m 0,0 km/h N 3,0 C 5,7 C 0,0 km/h
07.12.2020 19:00 6,3 C 82 % 1006,5 hPa 0,0 l/m 0,0 km/h N 3,5 C 6,3 C 1,6 km/h
07.12.2020 20:00 6,1 C 82 % 1006,7 hPa 0,0 l/m 0,0 km/h N 3,2 C 6,1 C 0,4 km/h
07.12.2020 21:00 5,6 C 82 % 1006,9 hPa 0,0 l/m 0,0 km/h N 2,8 C 5,6 C 1,6 km/h
07.12.2020 22:00 5,5 C 82 % 1006,8 hPa 0,0 l/m 0,1 km/h N 2,7 C 5,5 C 3,6 km/h
07.12.2020 23:00 5,3 C 82 % 1007,0 hPa 0,0 l/m 0,2 km/h N 2,4 C 5,3 C 6,0 km/h
08.12.2020 00:00 4,9 C 82 % 1006,6 hPa 0,0 l/m 0,1 km/h N 2,1 C 4,9 C 3,6 km/h
08.12.2020 01:00 4,7 C 82 % 1006,2 hPa 0,0 l/m 0,0 km/h N 1,8 C 4,7 C 0,4 km/h
08.12.2020 02:00 4,5 C 82 % 1006,5 hPa 0,0 l/m 0,0 km/h N 1,7 C 4,5 C 1,2 km/h
08.12.2020 03:00 4,4 C 82 % 1006,5 hPa 0,0 l/m 0,1 km/h N 1,6 C 4,4 C 3,2 km/h
08.12.2020 04:00 4,1 C 82 % 1006,5 hPa 0,0 l/m 1,0 km/h N 1,3 C 4,1 C 6,4 km/h
08.12.2020 05:00 3,9 C 82 % 1006,9 hPa 0,0 l/m 0,1 km/h N 1,1 C 3,9 C 3,2 km/h
08.12.2020 06:00 3,6 C 82 % 1007,1 hPa 0,0 l/m 0,0 km/h N 0,8 C 3,6 C 0,8 km/h
08.12.2020 07:00 3,5 C 82 % 1007,7 hPa 0,0 l/m 0,0 km/h N 0,7 C 3,5 C 0,4 km/h
08.12.2020 08:00 3,5 C 82 % 1008,2 hPa 0,0 l/m 0,3 km/h N 0,7 C 3,5 C 4,4 km/h
08.12.2020 09:00 4,0 C 82 % 1008,8 hPa 0,0 l/m 0,5 km/h N 1,2 C 4,0 C 5,2 km/h
08.12.2020 10:00 4,6 C 82 % 1009,0 hPa 0,0 l/m 0,7 km/h N 1,8 C 4,6 C 5,6 km/h
08.12.2020 11:00 4,4 C 82 % 1009,1 hPa 0,0 l/m 0,2 km/h N 1,6 C 4,4 C 5,2 km/h
08.12.2020 12:00 4,1 C 82 % 1009,0 hPa 0,0 l/m 0,3 km/h N 1,4 C 4,1 C 6,8 km/h
08.12.2020 13:00 4,2 C 82 % 1008,8 hPa 0,0 l/m 0,5 km/h N 1,4 C 4,2 C 6,8 km/h
08.12.2020 14:00 4,0 C 82 % 1008,9 hPa 0,0 l/m 0,4 km/h N 1,2 C 4,0 C 5,6 km/h
08.12.2020 15:00 3,9 C 82 % 1009,2 hPa 0,0 l/m 0,5 km/h N 1,1 C 3,9 C 7,2 km/h
08.12.2020 16:00 4,0 C 82 % 1009,4 hPa 0,0 l/m 0,1 km/h N 1,2 C 4,0 C 2,8 km/h
08.12.2020 17:00 3,7 C 82 % 1009,7 hPa 0,0 l/m 0,2 km/h N 0,9 C 3,7 C 4,4 km/h
08.12.2020 18:00 3,8 C 82 % 1009,7 hPa 0,0 l/m 0,2 km/h N 1,0 C 3,8 C 4,4 km/h
08.12.2020 19:00 3,9 C 82 % 1009,8 hPa 0,0 l/m 0,0 km/h N 1,1 C 3,9 C 0,0 km/h
08.12.2020 20:00 4,1 C 83 % 1009,8 hPa 0,0 l/m 0,0 km/h N 1,4 C 4,1 C 0,0 km/h
08.12.2020 21:00 4,2 C 83 % 1009,7 hPa 0,3 l/m 0,0 km/h N 1,5 C 4,2 C 0,0 km/h
08.12.2020 22:00 4,3 C 82 % 1009,6 hPa 0,3 l/m 0,0 km/h N 1,5 C 4,3 C 0,0 km/h
08.12.2020 23:00 4,4 C 82 % 1009,5 hPa 0,0 l/m 0,0 km/h N 1,6 C 4,4 C 0,0 km/h
09.12.2020 00:00 4,4 C 82 % 1009,1 hPa 0,0 l/m 0,0 km/h N 1,6 C 4,4 C 0,0 km/h
09.12.2020 01:00 4,3 C 82 % 1009,1 hPa 0,0 l/m 0,0 km/h N 1,5 C 4,3 C 2,0 km/h
09.12.2020 02:00 4,2 C 82 % 1009,3 hPa 0,0 l/m 0,0 km/h N 1,4 C 4,2 C 0,4 km/h
09.12.2020 03:00 4,0 C 82 % 1009,0 hPa 0,0 l/m 0,0 km/h N 1,2 C 4,0 C 0,8 km/h
09.12.2020 04:00 3,7 C 82 % 1008,8 hPa 0,0 l/m 0,1 km/h N 0,9 C 3,7 C 4,8 km/h
09.12.2020 05:00 3,4 C 82 % 1009,0 hPa 0,0 l/m 0,0 km/h N 0,7 C 3,4 C 2,0 km/h
09.12.2020 06:00 3,3 C 82 % 1008,9 hPa 0,0 l/m 0,0 km/h N 0,6 C 3,3 C 1,2 km/h
09.12.2020 07:00 3,3 C 82 % 1009,2 hPa 0,0 l/m 0,0 km/h N 0,5 C 3,3 C 0,4 km/h
09.12.2020 08:00 3,2 C 82 % 1009,5 hPa 0,0 l/m 0,0 km/h N 0,4 C 3,2 C 1,2 km/h
09.12.2020 09:00 3,1 C 82 % 1009,6 hPa 0,0 l/m 0,0 km/h N 0,4 C 3,1 C 0,4 km/h
09.12.2020 10:00 3,3 C 82 % 1009,7 hPa 0,0 l/m 0,0 km/h N 0,6 C 3,3 C 0,4 km/h
09.12.2020 11:00 3,5 C 82 % 1009,4 hPa 0,0 l/m 0,0 km/h N 0,7 C 3,5 C 0,0 km/h
09.12.2020 12:00 3,9 C 82 % 1008,8 hPa 0,0 l/m 0,0 km/h N 1,1 C 3,9 C 0,0 km/h
09.12.2020 13:00 4,1 C 83 % 1008,3 hPa 0,0 l/m 0,0 km/h N 1,5 C 4,1 C 0,4 km/h
09.12.2020 14:00 4,2 C 83 % 1008,1 hPa 0,0 l/m 0,0 km/h N 1,6 C 4,2 C 0,0 km/h
09.12.2020 15:00 4,1 C 83 % 1008,1 hPa 0,0 l/m 0,0 km/h N 1,5 C 4,1 C 0,0 km/h
09.12.2020 16:00 4,0 C 83 % 1008,1 hPa 0,0 l/m 0,0 km/h N 1,4 C 4,0 C 0,0 km/h
09.12.2020 17:00 4,1 C 83 % 1008,3 hPa 0,0 l/m 0,0 km/h N 1,4 C 4,1 C 0,0 km/h
09.12.2020 18:00 4,1 C 83 % 1008,3 hPa 0,3 l/m 0,0 km/h N 1,4 C 4,1 C 0,4 km/h
09.12.2020 19:00 3,9 C 83 % 1008,6 hPa 0,0 l/m 0,0 km/h N 1,3 C 3,9 C 0,0 km/h
09.12.2020 20:00 3,9 C 83 % 1008,7 hPa 0,3 l/m 0,0 km/h N 1,3 C 3,9 C 0,0 km/h
09.12.2020 21:00 4,0 C 82 % 1008,9 hPa 1,3 l/m 0,0 km/h N 1,3 C 4,0 C 0,0 km/h
09.12.2020 22:00 4,0 C 82 % 1008,7 hPa 0,5 l/m 0,0 km/h N 1,2 C 4,0 C 0,0 km/h
09.12.2020 23:00 3,5 C 82 % 1008,3 hPa 1,0 l/m 1,6 km/h N 0,7 C 3,5 C 8,4 km/h
10.12.2020 00:00 2,9 C 82 % 1007,9 hPa 0,8 l/m 2,4 km/h N 0,1 C 2,9 C 8,9 km/h
10.12.2020 01:00 2,8 C 82 % 1007,4 hPa 0,3 l/m 3,5 km/h N 0,0 C 2,8 C 12,5 km/h
10.12.2020 02:00 2,9 C 82 % 1007,2 hPa 0,3 l/m 1,4 km/h N 0,1 C 2,9 C 8,5 km/h
10.12.2020 03:00 2,9 C 82 % 1006,7 hPa 0,0 l/m 0,5 km/h N 0,1 C 2,9 C 7,6 km/h
10.12.2020 04:00 2,9 C 82 % 1006,0 hPa 0,0 l/m 2,7 km/h N 0,2 C 2,9 C 12,9 km/h
10.12.2020 05:00 3,1 C 83 % 1005,8 hPa 0,3 l/m 3,0 km/h N 0,5 C 3,1 C 13,3 km/h
10.12.2020 06:00 3,0 C 83 % 1005,8 hPa 0,3 l/m 3,5 km/h N 0,4 C 3,0 C 16,1 km/h
10.12.2020 07:00 2,7 C 83 % 1005,5 hPa 0,5 l/m 4,3 km/h N 0,1 C 2,7 C 15,7 km/h
10.12.2020 08:00 2,7 C 83 % 1005,4 hPa 0,0 l/m 1,8 km/h N 0,1 C 2,7 C 7,7 km/h
10.12.2020 09:00 2,9 C 83 % 1005,4 hPa 0,0 l/m 1,3 km/h N 0,3 C 2,9 C 8,9 km/h
10.12.2020 10:00 3,2 C 83 % 1005,4 hPa 0,0 l/m 0,5 km/h N 0,6 C 3,2 C 5,6 km/h
10.12.2020 11:00 3,5 C 83 % 1005,0 hPa 0,0 l/m 0,6 km/h N 0,9 C 3,5 C 4,8 km/h
10.12.2020 12:00 3,7 C 83 % 1004,9 hPa 0,0 l/m 0,4 km/h N 1,1 C 3,7 C 6,8 km/h
10.12.2020 13:00 3,7 C 83 % 1004,8 hPa 0,3 l/m 0,1 km/h N 1,1 C 3,7 C 4,0 km/h
10.12.2020 14:00 3,6 C 83 % 1004,9 hPa 0,3 l/m 0,0 km/h N 1,0 C 3,6 C 0,8 km/h
10.12.2020 15:00 3,3 C 83 % 1005,4 hPa 0,3 l/m 0,3 km/h N 0,7 C 3,3 C 4,0 km/h
10.12.2020 16:00 3,0 C 83 % 1005,8 hPa 0,3 l/m 0,0 km/h N 0,4 C 3,0 C 0,0 km/h
10.12.2020 17:00 2,7 C 83 % 1006,3 hPa 0,0 l/m 0,0 km/h N 0,1 C 2,7 C 0,0 km/h
10.12.2020 18:00 2,2 C 83 % 1007,0 hPa 0,8 l/m 0,0 km/h N -0,4 C 2,2 C 0,0 km/h
10.12.2020 19:00 1,5 C 83 % 1007,5 hPa 0,5 l/m 0,0 km/h N -1,1 C 1,5 C 0,0 km/h
10.12.2020 20:00 1,1 C 83 % 1007,9 hPa 0,3 l/m 0,0 km/h N -1,4 C 1,1 C 0,0 km/h
10.12.2020 21:00 0,9 C 83 % 1008,1 hPa 0,0 l/m 0,0 km/h N -1,6 C 0,9 C 0,0 km/h
10.12.2020 22:00 1,1 C 83 % 1008,2 hPa 0,3 l/m 0,0 km/h N -1,4 C 1,1 C 0,0 km/h
10.12.2020 23:00 1,3 C 83 % 1008,3 hPa 0,3 l/m 0,0 km/h N -1,3 C 1,3 C 0,0 km/h
11.12.2020 00:00 1,4 C 82 % 1008,2 hPa 0,0 l/m 0,0 km/h N -1,3 C 1,4 C 0,0 km/h
11.12.2020 01:00 1,4 C 82 % 1007,9 hPa 0,0 l/m 0,0 km/h N -1,3 C 1,4 C 0,0 km/h
11.12.2020 02:00 1,6 C 82 % 1008,0 hPa 0,0 l/m 0,0 km/h N -1,1 C 1,6 C 0,0 km/h
11.12.2020 03:00 1,8 C 82 % 1007,7 hPa 0,0 l/m 0,0 km/h N -1,0 C 1,8 C 0,0 km/h
11.12.2020 04:00 1,9 C 82 % 1007,3 hPa 0,0 l/m 0,0 km/h N -0,9 C 1,9 C 0,0 km/h
11.12.2020 05:00 2,0 C 82 % 1007,2 hPa 0,0 l/m 0,0 km/h N -0,8 C 2,0 C 0,0 km/h
11.12.2020 06:00 2,0 C 82 % 1007,1 hPa 0,0 l/m 0,0 km/h N -0,7 C 2,0 C 0,0 km/h
11.12.2020 07:00 2,4 C 82 % 1007,1 hPa 0,0 l/m 0,0 km/h N -0,4 C 2,4 C 0,0 km/h
11.12.2020 08:00 2,6 C 83 % 1007,1 hPa 0,0 l/m 0,3 km/h N -0,1 C 2,6 C 4,4 km/h
11.12.2020 09:00 2,6 C 83 % 1006,8 hPa 0,0 l/m 0,7 km/h N 0,0 C 2,6 C 6,0 km/h
11.12.2020 10:00 2,8 C 83 % 1005,9 hPa 0,0 l/m 0,4 km/h N 0,2 C 2,8 C 4,8 km/h
11.12.2020 11:00 3,3 C 82 % 1004,9 hPa 0,0 l/m 0,2 km/h N 0,5 C 3,3 C 3,2 km/h
11.12.2020 12:00 4,1 C 82 % 1003,6 hPa 0,0 l/m 1,6 km/h N 1,3 C 4,1 C 7,3 km/h
11.12.2020 13:00 4,2 C 82 % 1002,8 hPa 0,0 l/m 0,2 km/h N 1,4 C 4,2 C 3,6 km/h
11.12.2020 14:00 4,1 C 83 % 1002,1 hPa 0,0 l/m 1,2 km/h N 1,5 C 4,1 C 9,7 km/h
11.12.2020 15:00 3,8 C 83 % 1002,1 hPa 0,0 l/m 0,4 km/h N 1,1 C 3,8 C 5,6 km/h
11.12.2020 16:00 3,3 C 83 % 1002,1 hPa 0,0 l/m 0,1 km/h N 0,6 C 3,3 C 3,6 km/h
11.12.2020 17:00 3,0 C 83 % 1002,0 hPa 0,0 l/m 0,4 km/h N 0,4 C 3,0 C 3,6 km/h
11.12.2020 18:00 3,2 C 83 % 1002,1 hPa 0,0 l/m 0,6 km/h N 0,6 C 3,2 C 8,4 km/h
11.12.2020 19:00 3,3 C 83 % 1002,0 hPa 0,0 l/m 1,0 km/h N 0,7 C 3,3 C 8,5 km/h
11.12.2020 20:00 3,4 C 83 % 1001,7 hPa 0,0 l/m 0,9 km/h N 0,8 C 3,4 C 8,1 km/h
11.12.2020 21:00 3,3 C 83 % 1001,3 hPa 0,0 l/m 3,1 km/h N 0,7 C 3,3 C 12,1 km/h
11.12.2020 22:00 3,2 C 83 % 1001,0 hPa 0,0 l/m 2,3 km/h N 0,6 C 3,2 C 9,3 km/h
11.12.2020 23:00 3,2 C 83 % 1000,6 hPa 0,0 l/m 0,6 km/h N 0,6 C 3,2 C 4,8 km/h
12.12.2020 00:00 2,9 C 83 % 1000,1 hPa 0,0 l/m 0,2 km/h N 0,3 C 2,9 C 5,6 km/h
12.12.2020 01:00 2,8 C 83 % 999,9 hPa 0,0 l/m 0,5 km/h N 0,2 C 2,8 C 6,8 km/h
12.12.2020 02:00 2,8 C 83 % 999,9 hPa 0,0 l/m 0,3 km/h N 0,2 C 2,8 C 7,2 km/h
12.12.2020 03:00 2,8 C 82 % 1000,0 hPa 0,0 l/m 0,3 km/h N 0,0 C 2,8 C 4,0 km/h
12.12.2020 04:00 2,9 C 82 % 999,9 hPa 0,0 l/m 0,1 km/h N 0,1 C 2,9 C 4,4 km/h
12.12.2020 05:00 2,8 C 82 % 999,8 hPa 0,0 l/m 0,1 km/h N 0,1 C 2,8 C 2,8 km/h
12.12.2020 06:00 2,8 C 82 % 999,9 hPa 0,0 l/m 0,1 km/h N 0,0 C 2,8 C 1,6 km/h
12.12.2020 07:00 2,9 C 82 % 1000,0 hPa 0,0 l/m 0,4 km/h N 0,1 C 2,9 C 3,6 km/h
12.12.2020 08:00 2,9 C 82 % 1000,4 hPa 0,0 l/m 0,1 km/h N 0,2 C 2,9 C 2,0 km/h
12.12.2020 09:00 3,1 C 82 % 1001,0 hPa 0,0 l/m 0,3 km/h N 0,4 C 3,1 C 5,6 km/h
12.12.2020 10:00 3,5 C 82 % 1001,3 hPa 0,0 l/m 0,3 km/h N 0,7 C 3,5 C 5,6 km/h
12.12.2020 11:00 3,6 C 82 % 1001,3 hPa 0,0 l/m 0,3 km/h N 0,9 C 3,6 C 5,2 km/h
12.12.2020 12:00 4,0 C 82 % 1001,3 hPa 0,0 l/m 0,2 km/h N 1,2 C 4,0 C 4,0 km/h
12.12.2020 13:00 4,0 C 83 % 1001,5 hPa 0,0 l/m 0,0 km/h N 1,4 C 4,0 C 1,6 km/h
12.12.2020 14:00 3,8 C 83 % 1002,0 hPa 0,0 l/m 0,0 km/h N 1,2 C 3,8 C 2,0 km/h
12.12.2020 15:00 3,5 C 83 % 1002,9 hPa 0,0 l/m 0,2 km/h N 0,9 C 3,5 C 4,8 km/h
12.12.2020 16:00 3,3 C 83 % 1003,7 hPa 0,0 l/m 0,0 km/h N 0,7 C 3,3 C 1,2 km/h
12.12.2020 17:00 3,1 C 83 % 1004,4 hPa 0,0 l/m 0,0 km/h N 0,5 C 3,1 C 0,8 km/h
12.12.2020 18:00 2,9 C 83 % 1005,0 hPa 0,0 l/m 0,0 km/h N 0,4 C 2,9 C 0,0 km/h
12.12.2020 19:00 2,8 C 83 % 1005,7 hPa 0,0 l/m 0,0 km/h N 0,1 C 2,8 C 0,0 km/h
12.12.2020 20:00 2,6 C 82 % 1006,2 hPa 0,0 l/m 0,0 km/h N -0,1 C 2,6 C 0,4 km/h
12.12.2020 21:00 2,5 C 82 % 1006,7 hPa 0,0 l/m 0,0 km/h N -0,2 C 2,5 C 0,0 km/h
12.12.2020 22:00 2,4 C 82 % 1007,0 hPa 0,0 l/m 0,0 km/h N -0,4 C 2,4 C 0,8 km/h
12.12.2020 23:00 2,3 C 82 % 1007,6 hPa 0,0 l/m 0,0 km/h N -0,4 C 2,3 C 0,0 km/h
13.12.2020 00:00 2,3 C 82 % 1007,8 hPa 0,0 l/m 0,0 km/h N -0,4 C 2,3 C 0,0 km/h
13.12.2020 01:00 2,3 C 82 % 1008,1 hPa 0,0 l/m 0,0 km/h N -0,4 C 2,3 C 0,0 km/h
13.12.2020 02:00 2,3 C 82 % 1008,4 hPa 0,0 l/m 0,0 km/h N -0,4 C 2,3 C 0,0 km/h
13.12.2020 03:00 2,3 C 82 % 1008,6 hPa 0,0 l/m 0,0 km/h N -0,4 C 2,3 C 0,0 km/h
13.12.2020 04:00 2,4 C 82 % 1008,8 hPa 0,0 l/m 0,1 km/h N -0,4 C 2,4 C 1,2 km/h
13.12.2020 05:00 2,3 C 82 % 1009,3 hPa 0,0 l/m 0,1 km/h N -0,4 C 2,3 C 3,2 km/h
13.12.2020 06:00 2,3 C 82 % 1009,7 hPa 0,0 l/m 0,1 km/h N -0,4 C 2,3 C 2,0 km/h
13.12.2020 07:00 2,3 C 82 % 1010,3 hPa 0,0 l/m 0,0 km/h N -0,4 C 2,3 C 0,8 km/h
13.12.2020 08:00 2,5 C 83 % 1010,9 hPa 0,0 l/m 0,0 km/h N -0,0 C 2,5 C 2,0 km/h
13.12.2020 09:00 3,0 C 83 % 1011,5 hPa 0,0 l/m 0,1 km/h N 0,4 C 3,0 C 3,2 km/h
13.12.2020 10:00 3,5 C 83 % 1012,1 hPa 0,0 l/m 1,2 km/h N 0,9 C 3,5 C 6,4 km/h
13.12.2020 11:00 4,3 C 83 % 1012,1 hPa 0,0 l/m 1,6 km/h N 1,7 C 4,3 C 7,2 km/h
13.12.2020 12:00 5,3 C 83 % 1011,9 hPa 0,0 l/m 4,2 km/h N 2,6 C 5,3 C 11,7 km/h
13.12.2020 13:00 5,7 C 82 % 1011,9 hPa 0,0 l/m 2,8 km/h N 2,9 C 5,7 C 9,3 km/h
13.12.2020 14:00 6,0 C 82 % 1012,3 hPa 0,0 l/m 1,5 km/h N 3,2 C 6,0 C 10,9 km/h
13.12.2020 15:00 5,8 C 82 % 1012,8 hPa 0,0 l/m 0,5 km/h N 3,0 C 5,8 C 6,4 km/h
13.12.2020 16:00 5,3 C 83 % 1013,3 hPa 0,0 l/m 0,4 km/h N 2,6 C 5,3 C 7,2 km/h
13.12.2020 17:00 5,3 C 83 % 1013,8 hPa 0,0 l/m 1,2 km/h N 2,7 C 5,3 C 8,8 km/h
13.12.2020 18:00 5,3 C 83 % 1014,4 hPa 0,0 l/m 0,9 km/h N 2,6 C 5,3 C 6,8 km/h
13.12.2020 19:00 5,3 C 83 % 1014,6 hPa 0,0 l/m 0,5 km/h N 2,7 C 5,3 C 5,6 km/h
13.12.2020 20:00 5,4 C 83 % 1014,9 hPa 0,0 l/m 0,1 km/h N 2,7 C 5,4 C 1,6 km/h
13.12.2020 21:00 5,3 C 83 % 1015,3 hPa 0,0 l/m 0,1 km/h N 2,6 C 5,3 C 1,2 km/h
13.12.2020 22:00 5,2 C 83 % 1015,5 hPa 0,0 l/m 0,0 km/h N 2,5 C 5,2 C 0,0 km/h
13.12.2020 23:00 5,3 C 83 % 1015,6 hPa 0,0 l/m 0,0 km/h N 2,6 C 5,3 C 0,4 km/h
Min-Datum _ 10.12.20 07.12.20 12.12.20 - 07.12.20 - 10.12.20 10.12.20 07.12.20
_ Min-Zeit 21:15 00:00 05:15 - 07:00 - 21:15 21:15 07:30
Minimum _ 0,9 C 82 % 999,7 hPa - 0,0 km/h - -1,7 C 0,9 C 0,0 km/h
Max-Datum _ 07.12.20 07.12.20 13.12.20 09.12.20 10.12.20 - 07.12.20 07.12.20 10.12.20
_ Max-Zeit 00:00 00:15 23:15 21:45 07:15 - 00:15 00:00 06:15
Maximum _ 7,5 C 83 % 1015,7 hPa 1,3 l/m 5,2 km/h
N
- 4,7 C 7,4 C 19,3 km/h
N
Durchschnitt _ 3,8 C 82 % 1006,6 hPa #9,6 l/m 0,4 km/h N 1,1 C 3,8 C 3,6 km/h